Time;durP1;ratioP1;P1;durP2;ratioP2;P2;SDS_P1;SDS_P2;PMS_P1;PMS_P2;Temp;Humidity;BMP_temperature;BMP_pressure;BME280_temperature;BME280_humidity;BME280_pressure;Samples;Min_cycle;Max_cycle;Signal;HPM_P1;HPM_P2
2022/05/30 00:01:43;;;;;;;0.85;0.85;;;9.00;99.90;;;;;;5095823;28;20514;-72
2022/05/30 00:04:09;;;;;;;0.40;0.40;;;9.00;99.90;;;;;;5095923;28;20044;-69
2022/05/30 00:06:34;;;;;;;0.50;0.50;;;9.00;99.90;;;;;;5095506;28;20051;-70
2022/05/30 00:09:00;;;;;;;0.50;0.50;;;9.00;99.90;;;;;;5095649;28;20040;-70
2022/05/30 00:11:26;;;;;;;0.45;0.45;;;9.00;99.90;;;;;;5095598;28;20480;-71
2022/05/30 00:13:52;;;;;;;0.50;0.50;;;9.00;99.90;;;;;;5095946;28;20047;-73
2022/05/30 00:16:22;;;;;;;0.43;0.43;;;9.00;99.90;;;;;;5095555;28;20040;-73
2022/05/30 00:18:48;;;;;;;0.40;0.40;;;9.00;99.90;;;;;;5094782;28;20043;-72
2022/05/30 00:21:18;;;;;;;0.50;0.50;;;9.00;99.90;;;;;;5095496;28;20100;-70
2022/05/30 00:23:44;;;;;;;0.50;0.50;;;9.00;99.90;;;;;;5096164;28;20059;-71
2022/05/30 00:26:09;;;;;;;0.50;0.50;;;9.00;99.90;;;;;;5095308;28;20044;-72
2022/05/30 00:28:35;;;;;;;0.40;0.40;;;9.00;99.90;;;;;;5095234;28;20036;-73
2022/05/30 00:31:01;;;;;;;0.50;0.50;;;9.00;99.90;;;;;;5095255;28;20044;-72
2022/05/30 00:33:27;;;;;;;0.40;0.40;;;9.00;99.90;;;;;;5095257;28;20130;-70
2022/05/30 00:35:53;;;;;;;0.50;0.50;;;9.00;99.90;;;;;;5095157;28;20079;-71
2022/05/30 00:38:18;;;;;;;0.50;0.50;;;9.00;99.90;;;;;;5095129;28;20483;-71
2022/05/30 00:40:44;;;;;;;0.50;0.50;;;9.00;99.90;;;;;;5095451;28;20526;-73
2022/05/30 00:43:28;;;;;;;0.50;0.50;;;9.00;99.90;;;;;;5095005;28;20468;-71
2022/05/30 00:45:55;;;;;;;0.50;0.50;;;9.00;99.90;;;;;;5094221;28;20082;-75
2022/05/30 00:48:26;;;;;;;0.50;0.50;;;9.00;99.90;;;;;;5094842;28;20040;-74
2022/05/30 00:50:53;;;;;;;0.40;0.40;;;9.00;99.90;;;;;;5094886;28;20079;-72
2022/05/30 00:53:19;;;;;;;0.50;0.50;;;9.00;99.90;;;;;;5094828;28;20083;-70
2022/05/30 00:55:46;;;;;;;0.40;0.40;;;9.00;99.90;;;;;;5094866;28;20040;-71
2022/05/30 00:58:15;;;;;;;0.45;0.45;;;9.00;99.90;;;;;;5094794;28;20040;-71
2022/05/30 01:00:40;;;;;;;0.50;0.50;;;8.90;99.90;;;;;;5094624;28;20047;-73
2022/05/30 01:08:34;;;;;;;0.47;0.47;;;8.80;99.90;;;;;;5094381;28;20493;-72
2022/05/30 01:10:59;;;;;;;0.50;0.50;;;8.80;99.90;;;;;;5094572;28;20060;-71
2022/05/30 01:13:28;;;;;;;0.50;0.50;;;8.70;99.90;;;;;;5094521;28;20066;-75
2022/05/30 01:15:55;;;;;;;0.50;0.50;;;8.70;99.90;;;;;;5094280;28;20388;-72
2022/05/30 01:18:27;;;;;;;;;;;8.60;99.90;;;;;;5094787;28;20040;-73
2022/05/30 01:21:02;;;;;;;0.50;0.50;;;8.60;99.90;;;;;;5094785;28;19927;-73
2022/05/30 01:23:58;;;;;;;0.50;0.50;;;8.50;99.90;;;;;;5094555;28;20098;-73
2022/05/30 01:26:49;;;;;;;0.50;0.50;;;8.40;99.90;;;;;;5093998;28;20540;-73
2022/05/30 01:29:31;;;;;;;0.50;0.50;;;8.30;99.90;;;;;;5094607;28;20040;-73
2022/05/30 01:31:56;;;;;;;0.45;0.45;;;8.30;99.90;;;;;;5094358;28;20044;-72
2022/05/30 01:34:24;;;;;;;0.50;0.50;;;8.20;99.90;;;;;;5094223;28;20044;-71
2022/05/30 01:36:49;;;;;;;0.50;0.50;;;8.20;99.90;;;;;;5094016;28;20071;-72
2022/05/30 01:39:15;;;;;;;0.50;0.50;;;8.10;99.90;;;;;;5094760;28;20063;-74
2022/05/30 01:41:41;;;;;;;0.50;0.50;;;8.10;99.90;;;;;;5094343;28;20047;-73
2022/05/30 01:44:06;;;;;;;0.50;0.50;;;8.10;99.90;;;;;;5093945;28;20169;-72
2022/05/30 01:46:32;;;;;;;0.50;0.50;;;8.00;99.90;;;;;;5094037;28;20052;-75
2022/05/30 01:48:59;;;;;;;0.60;0.60;;;8.00;99.90;;;;;;5093886;28;20055;-74
2022/05/30 01:51:25;;;;;;;0.50;0.50;;;8.00;99.90;;;;;;5093606;28;20048;-72
2022/05/30 01:53:51;;;;;;;0.40;0.40;;;8.00;99.90;;;;;;5093590;28;20044;-72
2022/05/30 01:56:17;;;;;;;0.50;0.50;;;7.90;99.90;;;;;;5093759;28;20040;-74
2022/05/30 01:58:43;;;;;;;0.50;0.50;;;7.90;99.90;;;;;;5093880;28;20040;-71
2022/05/30 02:01:19;;;;;;;0.50;0.50;;;7.80;99.90;;;;;;5093820;28;20444;-74
2022/05/30 02:03:45;;;;;;;0.50;0.50;;;7.80;99.90;;;;;;5093741;28;20044;-73
2022/05/30 02:06:11;;;;;;;0.50;0.50;;;7.70;99.90;;;;;;5093770;28;20076;-72
2022/05/30 02:08:37;;;;;;;0.50;0.50;;;7.70;99.90;;;;;;5093612;28;20373;-75
2022/05/30 02:11:03;;;;;;;0.60;0.60;;;7.60;99.90;;;;;;5093682;28;20141;-72
2022/05/30 02:13:28;;;;;;;0.50;0.50;;;7.60;99.90;;;;;;5093764;28;20376;-73
2022/05/30 02:18:38;;;;;;;0.50;0.50;;;7.50;99.90;;;;;;5094118;28;20052;-75
2022/05/30 02:21:04;;;;;;;0.57;0.57;;;7.40;99.90;;;;;;5093587;28;20044;-74
2022/05/30 02:23:29;;;;;;;0.50;0.50;;;7.40;99.90;;;;;;5093599;28;20052;-71
2022/05/30 02:25:55;;;;;;;0.50;0.50;;;7.40;99.90;;;;;;5093563;28;20384;-73
2022/05/30 02:28:20;;;;;;;0.50;0.50;;;7.30;99.90;;;;;;5093466;28;20480;-75
2022/05/30 02:30:46;;;;;;;0.50;0.50;;;7.30;99.90;;;;;;5093531;28;20039;-71
2022/05/30 02:38:40;;;;;;;0.50;0.50;;;7.20;99.90;;;;;;5093693;28;20052;-74
2022/05/30 02:41:05;;;;;;;0.50;0.50;;;7.10;99.90;;;;;;5093387;28;20393;-71
2022/05/30 02:43:31;;;;;;;0.50;0.50;;;7.10;99.90;;;;;;5093377;28;20102;-72
2022/05/30 02:45:56;;;;;;;0.50;0.50;;;7.10;99.90;;;;;;5093318;28;20070;-72
2022/05/30 02:48:22;;;;;;;0.50;0.50;;;7.10;99.90;;;;;;5093263;28;20071;-72
2022/05/30 02:50:47;;;;;;;0.50;0.50;;;7.00;99.90;;;;;;5093320;28;20562;-73
2022/05/30 02:53:13;;;;;;;0.50;0.50;;;7.10;99.90;;;;;;5093496;28;20126;-70
2022/05/30 02:55:39;;;;;;;0.50;0.50;;;7.10;99.90;;;;;;5093251;28;20040;-72
2022/05/30 02:58:05;;;;;;;0.60;0.60;;;7.00;99.90;;;;;;5092950;28;20488;-74
2022/05/30 03:00:30;;;;;;;0.55;0.55;;;7.00;99.90;;;;;;5093200;28;20079;-73
2022/05/30 03:02:56;;;;;;;0.50;0.50;;;7.00;99.90;;;;;;5093266;28;20040;-72
2022/05/30 03:05:21;;;;;;;0.60;0.60;;;7.00;99.90;;;;;;5093133;28;20047;-71
2022/05/30 03:07:47;;;;;;;0.50;0.50;;;7.00;99.90;;;;;;5093219;28;20040;-73
2022/05/30 03:10:13;;;;;;;0.60;0.60;;;7.00;99.90;;;;;;5095641;28;20067;-74
2022/05/30 03:12:38;;;;;;;0.50;0.50;;;7.00;99.90;;;;;;5096829;28;20057;-73
2022/05/30 03:15:04;;;;;;;0.50;0.50;;;7.00;99.90;;;;;;5096678;28;20494;-74
2022/05/30 03:17:30;;;;;;;0.50;0.50;;;7.00;99.90;;;;;;5097092;28;20040;-72
2022/05/30 03:19:56;;;;;;;0.50;0.50;;;7.00;99.90;;;;;;5096341;28;20040;-72
2022/05/30 03:22:21;;;;;;;0.50;0.50;;;7.00;99.90;;;;;;5096622;28;20059;-72
2022/05/30 03:24:47;;;;;;;0.60;0.60;;;7.00;99.90;;;;;;5096419;28;20044;-71
2022/05/30 03:27:12;;;;;;;0.55;0.55;;;7.00;99.90;;;;;;5096555;28;20040;-74
2022/05/30 03:29:38;;;;;;;0.50;0.50;;;7.00;99.90;;;;;;5096278;28;20173;-72
2022/05/30 03:32:04;;;;;;;0.50;0.50;;;7.00;99.90;;;;;;5096358;28;20131;-72
2022/05/30 03:34:29;;;;;;;0.50;0.50;;;7.00;99.90;;;;;;5096388;28;20044;-73
2022/05/30 03:36:56;;;;;;;0.52;0.52;;;7.00;99.90;;;;;;5095985;28;20480;-74
2022/05/30 03:39:21;;;;;;;0.50;0.50;;;7.00;99.90;;;;;;5096287;28;20040;-71
2022/05/30 03:41:47;;;;;;;0.50;0.50;;;7.10;99.90;;;;;;5096364;28;20085;-75
2022/05/30 03:44:12;;;;;;;0.50;0.50;;;7.10;99.90;;;;;;5096133;28;20044;-75
2022/05/30 03:46:38;;;;;;;0.50;0.50;;;7.10;99.90;;;;;;5096094;28;20048;-75
2022/05/30 03:49:04;;;;;;;0.50;0.50;;;7.10;99.90;;;;;;5095948;28;20044;-70
2022/05/30 03:51:30;;;;;;;0.50;0.50;;;7.20;99.90;;;;;;5096005;28;20457;-72
2022/05/30 03:53:56;;;;;;;0.50;0.50;;;7.20;99.90;;;;;;5096173;28;20040;-71
2022/05/30 03:56:21;;;;;;;0.60;0.60;;;7.20;99.90;;;;;;5096004;28;20044;-76
2022/05/30 03:58:47;;;;;;;0.50;0.50;;;7.20;99.90;;;;;;5096171;28;20070;-71
2022/05/30 04:01:12;;;;;;;0.50;0.50;;;7.20;99.90;;;;;;5097397;28;20403;-73
2022/05/30 04:03:39;;;;;;;0.50;0.50;;;7.30;99.90;;;;;;5097237;28;20403;-73
2022/05/30 04:06:05;;;;;;;0.50;0.50;;;7.30;99.90;;;;;;5097057;28;20472;-70
2022/05/30 04:08:32;;;;;;;0.60;0.60;;;7.30;99.90;;;;;;5097395;28;20165;-73
2022/05/30 04:10:57;;;;;;;0.50;0.50;;;7.40;99.90;;;;;;5097464;28;20059;-70
2022/05/30 04:13:24;;;;;;;0.50;0.50;;;7.40;99.90;;;;;;5097436;28;20131;-74
2022/05/30 04:15:49;;;;;;;0.60;0.60;;;7.40;99.90;;;;;;5096790;28;20051;-70
2022/05/30 04:18:16;;;;;;;0.52;0.52;;;7.40;99.90;;;;;;5097722;28;20301;-71
2022/05/30 04:20:43;;;;;;;0.50;0.50;;;7.40;99.90;;;;;;5096201;28;20138;-70
2022/05/30 04:23:09;;;;;;;0.50;0.50;;;7.50;99.90;;;;;;5100695;28;20044;-72
2022/05/30 04:25:35;;;;;;;0.50;0.50;;;7.50;99.90;;;;;;5102261;28;20134;-70
2022/05/30 04:28:01;;;;;;;0.50;0.50;;;7.50;99.90;;;;;;5097419;28;20051;-70
2022/05/30 04:30:27;;;;;;;0.50;0.50;;;7.60;99.90;;;;;;5095518;28;20127;-72
2022/05/30 04:32:52;;;;;;;0.50;0.50;;;7.60;99.90;;;;;;5097569;28;20128;-71
2022/05/30 04:35:19;;;;;;;0.50;0.50;;;7.60;99.90;;;;;;5095617;28;20048;-71
2022/05/30 04:37:47;;;;;;;0.50;0.50;;;7.60;99.90;;;;;;5095278;28;20046;-75
2022/05/30 04:40:15;;;;;;;0.50;0.50;;;7.60;99.90;;;;;;5095264;28;20050;-72
2022/05/30 04:42:41;;;;;;;0.50;0.50;;;7.60;99.90;;;;;;5095083;28;20457;-73
2022/05/30 04:45:07;;;;;;;0.50;0.50;;;7.60;99.90;;;;;;5095984;28;20044;-71
2022/05/30 04:47:35;;;;;;;0.50;0.50;;;7.70;99.90;;;;;;5095676;28;20051;-74
2022/05/30 04:50:02;;;;;;;0.50;0.50;;;7.80;99.90;;;;;;5095251;28;20036;-71
2022/05/30 04:52:28;;;;;;;;;;;7.80;99.90;;;;;;5095339;28;20133;-72
2022/05/30 04:54:53;;;;;;;0.60;0.60;;;7.90;99.90;;;;;;5095028;28;20330;-73
2022/05/30 04:57:19;;;;;;;0.50;0.50;;;7.90;99.90;;;;;;5094843;28;20044;-74
2022/05/30 04:59:44;;;;;;;0.50;0.50;;;8.00;99.90;;;;;;5095280;28;20036;-72
2022/05/30 05:02:12;;;;;;;0.50;0.50;;;8.00;99.90;;;;;;5094628;28;20484;-70
2022/05/30 05:04:39;;;;;;;0.50;0.50;;;8.10;99.90;;;;;;5094762;28;20044;-72
2022/05/30 05:07:05;;;;;;;0.50;0.50;;;8.10;99.90;;;;;;5094721;28;20055;-72
2022/05/30 05:09:56;;;;;;;0.50;0.50;;;8.20;99.90;;;;;;5094595;28;20372;-74
2022/05/30 05:12:22;;;;;;;0.50;0.50;;;8.20;99.90;;;;;;5094488;28;20047;-71
2022/05/30 05:14:47;;;;;;;0.50;0.50;;;8.20;99.90;;;;;;5094943;28;20464;-72
2022/05/30 05:17:13;;;;;;;0.50;0.50;;;8.30;99.90;;;;;;5094541;28;20044;-73
2022/05/30 05:19:40;;;;;;;0.50;0.50;;;8.30;99.90;;;;;;5094485;28;20051;-71
2022/05/30 05:22:06;;;;;;;0.57;0.57;;;8.30;99.90;;;;;;5094499;28;20040;-73
2022/05/30 05:24:32;;;;;;;0.60;0.60;;;8.30;99.90;;;;;;5094332;28;20073;-73
2022/05/30 05:26:58;;;;;;;0.50;0.50;;;8.30;99.90;;;;;;5094355;28;20051;-70
2022/05/30 05:29:24;;;;;;;0.50;0.50;;;8.30;99.90;;;;;;5094137;28;20380;-71
2022/05/30 05:31:49;;;;;;;0.50;0.50;;;8.40;99.90;;;;;;5093837;28;20040;-71
2022/05/30 05:34:16;;;;;;;0.50;0.50;;;8.50;99.90;;;;;;5094223;28;20040;-73
2022/05/30 05:36:45;;;;;;;0.50;0.50;;;8.50;99.90;;;;;;5094097;28;20396;-76
2022/05/30 05:39:11;;;;;;;0.50;0.50;;;8.60;99.90;;;;;;5093968;28;20043;-72
2022/05/30 05:41:37;;;;;;;0.50;0.50;;;8.70;99.90;;;;;;5094093;28;20051;-71
2022/05/30 05:44:03;;;;;;;0.50;0.50;;;8.70;99.90;;;;;;5094051;28;20047;-71
2022/05/30 05:46:31;;;;;;;0.50;0.50;;;8.70;99.90;;;;;;5093918;28;20044;-74
2022/05/30 05:48:57;;;;;;;0.50;0.50;;;8.70;99.90;;;;;;5093944;28;20032;-72
2022/05/30 05:51:23;;;;;;;0.50;0.50;;;8.80;99.90;;;;;;5093963;28;20044;-75
2022/05/30 05:53:50;;;;;;;0.50;0.50;;;8.80;99.90;;;;;;5093923;28;20403;-73
2022/05/30 05:56:24;;;;;;;0.50;0.50;;;8.90;99.90;;;;;;5093959;28;20093;-73
2022/05/30 05:58:50;;;;;;;0.50;0.50;;;8.90;99.90;;;;;;5093940;28;20044;-71
2022/05/30 06:01:25;;;;;;;0.50;0.50;;;9.00;99.90;;;;;;5093833;28;20398;-73
2022/05/30 06:03:53;;;;;;;0.50;0.50;;;9.00;99.90;;;;;;5093516;28;20046;-73
2022/05/30 06:06:18;;;;;;;0.50;0.50;;;9.20;99.90;;;;;;5093763;28;20048;-74
2022/05/30 06:08:44;;;;;;;0.50;0.50;;;9.40;99.90;;;;;;5094441;28;20100;-71
2022/05/30 06:11:11;;;;;;;0.50;0.50;;;9.70;99.90;;;;;;5093958;28;20088;-75
2022/05/30 06:13:41;;;;;;;;;;;10.10;99.90;;;;;;5094582;28;20137;-75
2022/05/30 06:16:08;;;;;;;0.40;0.40;;;10.40;99.90;;;;;;5093926;28;20340;-73
2022/05/30 06:18:34;;;;;;;0.50;0.50;;;10.70;99.90;;;;;;5093623;28;20043;-72
2022/05/30 06:21:01;;;;;;;0.50;0.50;;;11.00;99.90;;;;;;5093536;28;20041;-72
2022/05/30 06:23:27;;;;;;;0.40;0.40;;;11.20;99.90;;;;;;5093630;28;20130;-71
2022/05/30 06:25:53;;;;;;;0.50;0.50;;;11.30;99.90;;;;;;5093496;28;20076;-73
2022/05/30 06:28:19;;;;;;;0.40;0.40;;;11.40;99.90;;;;;;5093516;28;20048;-71
2022/05/30 06:30:44;;;;;;;0.40;0.40;;;11.60;99.90;;;;;;5093615;28;20389;-72
2022/05/30 06:33:10;;;;;;;0.40;0.40;;;11.70;99.90;;;;;;5093562;28;20503;-71
2022/05/30 06:35:44;;;;;;;0.40;0.40;;;11.80;99.90;;;;;;5093485;28;20480;-73
2022/05/30 06:38:10;;;;;;;0.55;0.55;;;11.90;99.90;;;;;;5093631;28;20048;-72
2022/05/30 06:40:36;;;;;;;0.70;0.70;;;11.90;99.90;;;;;;5093506;28;20113;-74
2022/05/30 06:43:03;;;;;;;0.40;0.40;;;12.10;99.90;;;;;;5093490;28;20096;-71
2022/05/30 06:45:29;;;;;;;0.40;0.40;;;12.20;99.90;;;;;;5096974;28;20079;-74
2022/05/30 06:47:55;;;;;;;0.40;0.40;;;12.20;99.90;;;;;;5097310;28;20048;-74
2022/05/30 06:50:20;;;;;;;0.40;0.40;;;12.20;99.90;;;;;;5097115;28;20040;-71
2022/05/30 06:52:46;;;;;;;0.40;0.40;;;12.10;99.90;;;;;;5097152;28;20044;-73
2022/05/30 06:55:11;;;;;;;0.35;0.35;;;12.10;99.90;;;;;;5097152;28;20048;-70
2022/05/30 07:00:22;;;;;;;0.40;0.40;;;12.10;99.90;;;;;;5097056;28;20472;-73
2022/05/30 07:02:47;;;;;;;0.40;0.40;;;12.20;99.90;;;;;;5096749;28;20044;-74
2022/05/30 07:05:13;;;;;;;0.40;0.40;;;12.50;99.90;;;;;;5096970;28;20044;-71
2022/05/30 07:07:40;;;;;;;0.40;0.40;;;12.70;99.90;;;;;;5096825;28;20055;-74
2022/05/30 07:10:07;;;;;;;0.40;0.40;;;12.80;99.90;;;;;;5096870;28;20127;-74
2022/05/30 07:12:33;;;;;;;;;;;13.00;99.90;;;;;;5097865;28;20143;-71
2022/05/30 07:14:58;;;;;;;2.08;1.30;;;13.20;99.90;;;;;;5096888;28;19975;-72
2022/05/30 07:17:25;;;;;;;0.40;0.40;;;13.20;99.90;;;;;;5096632;28;20458;-70
2022/05/30 07:19:51;;;;;;;0.40;0.40;;;13.30;99.90;;;;;;5096681;28;20067;-72
2022/05/30 07:22:17;;;;;;;0.40;0.40;;;13.30;99.90;;;;;;5096613;28;20040;-72
2022/05/30 07:24:43;;;;;;;0.60;0.60;;;13.40;99.90;;;;;;5096584;28;20040;-72
2022/05/30 07:27:09;;;;;;;0.40;0.40;;;13.40;99.90;;;;;;5096888;28;20043;-70
2022/05/30 07:29:35;;;;;;;0.40;0.40;;;13.50;99.90;;;;;;5096433;28;20289;-72
2022/05/30 07:32:02;;;;;;;0.30;0.30;;;13.50;99.90;;;;;;5096444;28;20047;-73
2022/05/30 07:34:28;;;;;;;0.40;0.40;;;13.40;99.90;;;;;;5096475;28;20377;-71
2022/05/30 07:36:54;;;;;;;0.40;0.40;;;13.50;99.90;;;;;;5095387;28;20040;-73
2022/05/30 07:39:20;;;;;;;0.40;0.40;;;13.60;99.90;;;;;;5096358;28;20062;-73
2022/05/30 07:41:45;;;;;;;0.40;0.40;;;13.60;99.90;;;;;;5096014;28;20530;-74
2022/05/30 07:44:11;;;;;;;0.40;0.40;;;13.40;99.90;;;;;;5095466;28;20048;-72
2022/05/30 07:46:39;;;;;;;0.40;0.40;;;13.40;99.90;;;;;;5096138;28;20097;-72
2022/05/30 07:49:05;;;;;;;0.40;0.40;;;13.30;99.90;;;;;;5096066;28;20123;-73
2022/05/30 07:51:30;;;;;;;0.40;0.40;;;13.30;99.90;;;;;;5096079;28;20464;-76
2022/05/30 07:53:57;;;;;;;11.63;0.82;;;13.30;99.90;;;;;;5096378;28;20399;-69
2022/05/30 07:56:22;;;;;;;0.30;0.30;;;13.20;99.90;;;;;;5096018;28;20109;-71
2022/05/30 07:58:48;;;;;;;0.40;0.40;;;13.10;99.90;;;;;;5096014;28;20040;-73
2022/05/30 08:01:18;;;;;;;0.40;0.40;;;13.00;99.90;;;;;;5095912;28;20052;-74
2022/05/30 08:03:45;;;;;;;0.40;0.40;;;13.10;99.90;;;;;;5096434;28;20048;-73
2022/05/30 08:06:16;;;;;;;0.40;0.40;;;13.40;99.90;;;;;;5095852;28;20109;-72
2022/05/30 08:08:43;;;;;;;0.40;0.40;;;13.70;99.90;;;;;;5095123;28;20177;-75
2022/05/30 08:11:09;;;;;;;0.40;0.40;;;14.00;99.90;;;;;;5095701;28;20060;-74
2022/05/30 08:13:35;;;;;;;0.30;0.30;;;14.20;99.90;;;;;;5095735;28;20052;-74
2022/05/30 08:16:02;;;;;;;0.30;0.30;;;14.40;99.90;;;;;;5095615;28;20472;-73
2022/05/30 08:18:29;;;;;;;0.40;0.40;;;14.40;99.90;;;;;;5096037;28;20040;-70
2022/05/30 08:20:55;;;;;;;0.30;0.30;;;14.60;99.90;;;;;;5095484;28;20487;-74
2022/05/30 08:23:20;;;;;;;0.40;0.40;;;14.70;99.90;;;;;;5094438;28;20044;-75
2022/05/30 08:25:47;;;;;;;0.30;0.30;;;14.70;99.90;;;;;;5095495;28;20062;-72
2022/05/30 08:28:13;;;;;;;0.40;0.40;;;14.60;99.90;;;;;;5095261;28;20126;-74
2022/05/30 08:30:39;;;;;;;0.40;0.40;;;14.50;99.90;;;;;;5095216;28;20044;-71
2022/05/30 08:33:10;;;;;;;0.60;0.60;;;14.30;99.90;;;;;;5095295;28;20101;-72
2022/05/30 08:35:37;;;;;;;0.40;0.40;;;14.10;99.90;;;;;;5095289;28;20514;-73
2022/05/30 08:38:02;;;;;;;;;;;14.00;99.90;;;;;;5095691;28;20044;-74
2022/05/30 08:43:29;;;;;;;0.30;0.30;;;13.60;99.90;;;;;;5095069;28;20048;-73
2022/05/30 08:46:06;;;;;;;0.40;0.40;;;13.50;99.90;;;;;;5095115;28;20040;-72
2022/05/30 08:48:46;;;;;;;0.40;0.40;;;13.60;99.90;;;;;;5094624;28;20479;-71
2022/05/30 08:51:30;;;;;;;0.40;0.40;;;13.80;99.90;;;;;;5095139;28;20387;-72
2022/05/30 08:54:24;;;;;;;0.40;0.40;;;14.10;99.90;;;;;;5094816;28;20048;-74
2022/05/30 08:56:53;;;;;;;0.40;0.40;;;14.40;99.90;;;;;;5095145;28;20490;-70
2022/05/30 08:59:56;;;;;;;0.32;0.32;;;14.60;99.90;;;;;;5094689;28;20396;-72
2022/05/30 09:02:24;;;;;;;0.40;0.40;;;14.70;99.90;;;;;;5094687;28;20048;-70
2022/05/30 09:04:55;;;;;;;0.30;0.30;;;14.70;99.90;;;;;;5094938;28;20104;-75
2022/05/30 09:07:35;;;;;;;0.30;0.30;;;14.70;99.90;;;;;;5094067;28;20114;-72
2022/05/30 09:10:24;;;;;;;0.40;0.40;;;14.60;99.90;;;;;;5094356;28;20080;-74
2022/05/30 09:13:06;;;;;;;0.30;0.30;;;14.60;99.90;;;;;;5094518;28;20044;-74
2022/05/30 09:15:52;;;;;;;0.30;0.30;;;14.70;99.90;;;;;;5094879;28;20047;-76
2022/05/30 09:18:23;;;;;;;0.40;0.40;;;14.70;99.90;;;;;;5083353;28;20078;-74
2022/05/30 09:20:49;;;;;;;0.30;0.30;;;14.80;99.90;;;;;;5094404;28;20059;-74
2022/05/30 09:23:20;;;;;;;0.40;0.40;;;14.70;99.90;;;;;;5095019;28;20044;-73
2022/05/30 09:26:07;;;;;;;0.40;0.40;;;14.80;99.90;;;;;;5094713;28;20137;-74
2022/05/30 09:28:41;;;;;;;0.40;0.40;;;14.90;99.90;;;;;;5094226;28;20040;-73
2022/05/30 09:31:44;;;;;;;0.40;0.40;;;14.90;99.90;;;;;;5094180;28;20055;-73
2022/05/30 09:34:28;;;;;;;0.40;0.40;;;15.00;99.90;;;;;;5094102;28;20085;-72
2022/05/30 09:36:54;;;;;;;0.30;0.30;;;15.00;99.90;;;;;;5094080;28;20073;-74
2022/05/30 09:39:20;;;;;;;0.40;0.40;;;14.80;99.90;;;;;;5093014;28;20475;-71
2022/05/30 09:41:54;;;;;;;0.30;0.30;;;14.70;99.90;;;;;;5094058;28;20036;-71
2022/05/30 09:44:46;;;;;;;0.40;0.40;;;14.30;99.90;;;;;;5094485;28;20044;-74
2022/05/30 09:47:17;;;;;;;0.30;0.30;;;14.20;99.90;;;;;;5090592;28;20059;-73
2022/05/30 09:49:49;;;;;;;0.30;0.30;;;13.90;99.90;;;;;;5094037;28;20044;-72
2022/05/30 09:52:33;;;;;;;0.30;0.30;;;13.80;99.90;;;;;;5093897;28;20048;-70
2022/05/30 09:54:59;;;;;;;0.40;0.40;;;13.50;99.90;;;;;;5093873;28;20055;-74
2022/05/30 09:57:43;;;;;;;0.38;0.38;;;13.50;99.90;;;;;;5093866;28;20575;-69
2022/05/30 10:00:35;;;;;;;0.32;0.32;;;13.50;99.90;;;;;;5093013;28;20056;-73
2022/05/30 10:03:09;;;;;;;0.30;0.30;;;13.50;99.90;;;;;;5086950;28;20468;-74
2022/05/30 10:05:36;;;;;;;0.40;0.40;;;13.40;99.90;;;;;;5094061;28;20395;-73
2022/05/30 10:08:24;;;;;;;0.32;0.32;;;13.40;99.90;;;;;;5093756;28;20097;-74
2022/05/30 10:10:51;;;;;;;;;;;13.50;99.90;;;;;;5094011;28;20468;-75
2022/05/30 10:13:34;;;;;;;0.30;0.30;;;13.40;99.90;;;;;;5093820;28;20920;-74
2022/05/30 10:16:02;;;;;;;0.40;0.40;;;13.40;99.90;;;;;;5093704;28;20514;-75
2022/05/30 10:18:32;;;;;;;0.40;0.40;;;13.40;99.90;;;;;;5095949;28;20079;-75
2022/05/30 10:21:11;;;;;;;0.40;0.40;;;13.50;99.90;;;;;;5097521;28;20503;-72
2022/05/30 10:30:18;;;;;;;0.30;0.30;;;13.90;99.90;;;;;;5097566;28;20044;-73
2022/05/30 10:33:15;;;;;;;0.30;0.30;;;14.10;99.90;;;;;;5098053;28;20048;-70
2022/05/30 10:36:09;;;;;;;0.40;0.40;;;14.40;99.90;;;;;;5097651;28;20043;-74
2022/05/30 10:39:16;;;;;;;0.32;0.32;;;14.70;99.90;;;;;;5097552;28;20166;-73
2022/05/30 10:41:48;;;;;;;0.30;0.30;;;15.00;99.90;;;;;;5035114;28;20099;-73
2022/05/30 10:44:26;;;;;;;0.30;0.30;;;15.00;99.90;;;;;;5035271;28;20440;-72
2022/05/30 10:47:06;;;;;;;0.35;0.35;;;15.20;99.90;;;;;;5071539;28;20117;-74
2022/05/30 10:49:36;;;;;;;0.30;0.30;;;15.30;99.90;;;;;;5097984;28;20044;-74
2022/05/30 10:52:25;;;;;;;0.38;0.38;;;15.60;99.90;;;;;;5097412;28;20087;-73
2022/05/30 10:55:13;;;;;;;0.30;0.30;;;16.00;99.90;;;;;;5097221;28;20127;-72
2022/05/30 10:57:39;;;;;;;0.47;0.47;;;16.40;99.40;;;;;;5097830;28;20048;-75
2022/05/30 11:00:17;;;;;;;0.30;0.30;;;16.40;98.90;;;;;;5097097;28;20043;-73
2022/05/30 11:02:47;;;;;;;0.30;0.30;;;16.60;99.90;;;;;;5096951;28;20051;-71
2022/05/30 11:05:19;;;;;;;0.30;0.30;;;16.80;98.00;;;;;;5096920;28;20040;-73
2022/05/30 11:08:05;;;;;;;0.30;0.30;;;17.00;99.00;;;;;;5096909;28;20055;-75
2022/05/30 11:10:39;;;;;;;0.30;0.30;;;17.00;98.10;;;;;;5096815;28;20062;-70
2022/05/30 11:13:23;;;;;;;0.30;0.30;;;17.20;99.90;;;;;;5096819;28;20051;-73
2022/05/30 11:15:54;;;;;;;0.30;0.30;;;17.30;98.40;;;;;;5096720;28;20056;-73
2022/05/30 11:18:38;;;;;;;0.30;0.30;;;17.40;98.40;;;;;;5096783;28;20083;-75
2022/05/30 11:21:13;;;;;;;0.30;0.30;;;17.50;96.40;;;;;;5096888;28;20044;-73
2022/05/30 11:23:39;;;;;;;0.75;0.73;;;17.50;96.50;;;;;;5096822;28;20048;-74
2022/05/30 11:26:42;;;;;;;0.30;0.30;;;17.30;95.60;;;;;;5096565;28;20480;-74
2022/05/30 11:29:22;;;;;;;0.30;0.30;;;16.70;95.70;;;;;;5096417;28;20051;-74
2022/05/30 11:32:01;;;;;;;0.30;0.30;;;16.40;98.10;;;;;;5096644;28;20071;-73
2022/05/30 11:34:52;;;;;;;0.40;0.40;;;16.20;99.10;;;;;;5096496;28;20439;-72
2022/05/30 11:37:58;;;;;;;0.30;0.30;;;16.00;99.90;;;;;;5096465;28;20056;-72
2022/05/30 11:40:40;;;;;;;0.30;0.30;;;15.70;99.80;;;;;;5096380;28;20495;-72
2022/05/30 11:43:43;;;;;;;0.30;0.30;;;15.40;99.80;;;;;;5096220;28;20044;-74
2022/05/30 11:46:24;;;;;;;0.45;0.45;;;15.30;99.90;;;;;;5096113;28;20052;-74
2022/05/30 11:48:58;;;;;;;0.30;0.30;;;15.30;99.90;;;;;;5096261;28;20105;-74
2022/05/30 11:51:49;;;;;;;0.30;0.30;;;15.30;98.10;;;;;;5096090;28;20133;-72
2022/05/30 11:54:32;;;;;;;0.30;0.30;;;15.40;97.80;;;;;;5094973;28;20059;-74
2022/05/30 11:57:13;;;;;;;0.30;0.30;;;15.50;98.10;;;;;;5096444;28;20051;-70
2022/05/30 12:00:07;;;;;;;0.30;0.30;;;15.50;99.70;;;;;;5095876;28;20120;-70
2022/05/30 12:02:49;;;;;;;0.30;0.30;;;15.30;99.90;;;;;;5096296;28;20048;-72
2022/05/30 12:05:26;;;;;;;0.40;0.40;;;15.30;99.90;;;;;;5095977;28;20131;-74
2022/05/30 12:08:03;;;;;;;;;;;15.20;99.90;;;;;;5096219;28;20149;-74
2022/05/30 12:10:47;;;;;;;0.38;0.38;;;15.00;99.90;;;;;;5095822;28;19919;-71
2022/05/30 12:13:26;;;;;;;0.30;0.30;;;14.80;99.90;;;;;;5095980;28;20047;-74
2022/05/30 12:16:14;;;;;;;0.30;0.30;;;14.70;99.90;;;;;;5095813;28;20109;-76
2022/05/30 12:24:39;;;;;;;0.30;0.30;;;14.60;99.90;;;;;;5095497;28;20048;-73
2022/05/30 12:27:26;;;;;;;0.38;0.38;;;14.50;99.90;;;;;;5095310;28;20094;-74
2022/05/30 12:29:53;;;;;;;0.40;0.40;;;14.50;99.90;;;;;;5095257;28;20036;-74
2022/05/30 12:32:21;;;;;;;0.30;0.30;;;14.50;99.90;;;;;;5095436;28;20079;-75
2022/05/30 12:35:10;;;;;;;0.30;0.30;;;14.40;99.90;;;;;;5095277;28;20396;-76
2022/05/30 12:37:43;;;;;;;0.30;0.30;;;14.30;99.90;;;;;;5095399;28;20510;-74
2022/05/30 12:40:26;;;;;;;0.30;0.30;;;14.30;99.90;;;;;;5095132;28;20495;-74
2022/05/30 12:43:23;;;;;;;0.40;0.40;;;14.30;99.90;;;;;;5094098;28;20432;-73
2022/05/30 12:45:54;;;;;;;0.30;0.30;;;14.30;99.90;;;;;;5094920;28;20091;-74
2022/05/30 12:48:42;;;;;;;0.30;0.30;;;14.40;99.90;;;;;;5094818;28;20080;-74
2022/05/30 12:51:22;;;;;;;0.30;0.30;;;14.40;99.90;;;;;;5095001;28;20044;-71
2022/05/30 12:53:57;;;;;;;0.30;0.30;;;14.30;99.90;;;;;;5095051;28;20046;-72
2022/05/30 12:56:38;;;;;;;0.30;0.30;;;14.30;99.90;;;;;;5094745;28;20089;-72
2022/05/30 12:59:03;;;;;;;0.30;0.30;;;14.40;99.90;;;;;;5094754;28;20039;-70
2022/05/30 13:01:44;;;;;;;0.30;0.30;;;14.50;99.90;;;;;;5093832;28;20055;-73
2022/05/30 13:04:21;;;;;;;0.30;0.30;;;14.40;99.90;;;;;;5094694;28;20048;-74
2022/05/30 13:06:57;;;;;;;0.30;0.30;;;14.30;99.90;;;;;;5094661;28;20653;-73
2022/05/30 13:09:35;;;;;;;0.30;0.30;;;14.30;99.90;;;;;;5094458;28;20079;-70
2022/05/30 13:12:10;;;;;;;0.30;0.30;;;14.30;99.90;;;;;;5094787;28;20077;-72
2022/05/30 13:14:50;;;;;;;0.30;0.30;;;14.20;99.90;;;;;;5094478;28;20048;-74
2022/05/30 13:17:19;;;;;;;0.30;0.30;;;14.30;99.90;;;;;;5094480;28;20189;-73
2022/05/30 13:20:00;;;;;;;0.30;0.30;;;14.20;99.90;;;;;;5094416;28;20040;-71
2022/05/30 13:22:34;;;;;;;0.30;0.30;;;14.10;99.90;;;;;;5094801;28;20075;-72
2022/05/30 13:25:01;;;;;;;0.55;0.55;;;14.10;99.90;;;;;;5094450;28;20047;-71
2022/05/30 13:27:28;;;;;;;0.30;0.30;;;14.00;99.90;;;;;;5094229;28;20051;-73
2022/05/30 13:29:55;;;;;;;0.40;0.40;;;14.10;99.90;;;;;;5093858;28;20564;-73
2022/05/30 13:32:23;;;;;;;0.40;0.40;;;14.00;99.90;;;;;;5094266;28;20047;-74
2022/05/30 13:34:54;;;;;;;0.40;0.40;;;13.90;99.90;;;;;;5094180;28;20052;-73
2022/05/30 13:37:31;;;;;;;0.32;0.32;;;13.90;99.90;;;;;;5094198;28;20043;-70
2022/05/30 13:40:03;;;;;;;0.30;0.30;;;13.90;99.90;;;;;;5094218;28;20040;-71
2022/05/30 13:42:45;;;;;;;0.30;0.30;;;14.00;99.90;;;;;;5094129;28;20126;-73
2022/05/30 13:45:11;;;;;;;0.32;0.32;;;14.10;99.90;;;;;;5094531;28;20040;-70